Time;durP1;ratioP1;P1;durP2;ratioP2;P2;SDS_P1;SDS_P2;PMS_P1;PMS_P2;Temp;Humidity;BMP_temperature;BMP_pressure;BME280_temperature;BME280_humidity;BME280_pressure;Samples;Min_cycle;Max_cycle;Signal;HPM_P1;HPM_P2
2022/09/27 00:01:03;;;;;;;9.23;5.00;;;;;;;16.54;71.28;94555.59;4989164;28;20027;-93
2022/09/27 00:03:28;;;;;;;8.23;4.75;;;;;;;16.56;70.41;94550.78;4988056;28;20034;-93
2022/09/27 00:06:14;;;;;;;6.57;4.80;;;;;;;16.38;70.80;94554.44;4956757;28;20053;-93
2022/09/27 00:08:39;;;;;;;8.88;5.05;;;;;;;16.38;71.44;94554.44;4973439;28;20498;-94
2022/09/27 00:11:09;;;;;;;8.10;4.97;;;;;;;16.42;71.75;94563.75;4971966;28;20100;-93
2022/09/27 00:13:34;;;;;;;10.55;5.45;;;;;;;16.47;72.00;94575.75;4972688;28;20037;-93
2022/09/27 00:16:03;;;;;;;7.47;5.80;;;;;;;16.46;71.93;94572.19;4988991;28;20022;-93
2022/09/27 00:18:30;;;;;;;7.78;5.63;;;;;;;16.46;71.72;94585.72;4972541;28;20506;-93
2022/09/27 00:20:55;;;;;;;10.05;4.97;;;;;;;16.46;71.28;94590.34;4987914;28;20117;-93
2022/09/27 00:23:20;;;;;;;7.07;4.88;;;;;;;16.43;69.93;94581.63;4972311;28;20425;-92
2022/09/27 00:25:56;;;;;;;7.57;5.32;;;;;;;16.41;71.79;94578.31;4987871;28;20026;-93
2022/09/27 00:28:22;;;;;;;6.45;5.15;;;;;;;16.25;71.78;94573.63;4971445;28;20480;-92
2022/09/27 00:30:47;;;;;;;7.57;4.93;;;;;;;16.28;70.76;94567.75;4971895;28;20058;-93
2022/09/27 00:33:13;;;;;;;7.43;4.55;;;;;;;16.01;70.69;94573.59;4987991;28;20037;-94
2022/09/27 00:35:39;;;;;;;6.03;4.85;;;;;;;15.94;71.75;94565.56;4988216;28;20042;-93
2022/09/27 00:38:06;;;;;;;6.38;4.78;;;;;;;15.89;72.51;94562.72;4988721;28;20061;-93
2022/09/27 00:40:31;;;;;;;6.85;4.95;;;;;;;15.86;71.60;94555.06;4988232;28;20409;-92
2022/09/27 00:42:57;;;;;;;8.13;4.80;;;;;;;15.76;72.41;94553.75;4987223;28;20031;-92
2022/09/27 00:45:22;;;;;;;8.43;5.10;;;;;;;15.62;72.91;94545.00;4988906;28;20037;-92
2022/09/27 00:47:52;;;;;;;7.03;5.18;;;;;;;15.53;74.37;94543.69;4992045;28;20031;-92
2022/09/27 00:50:31;;;;;;;6.63;5.35;;;;;;;15.48;74.79;94532.75;4991738;28;20061;-92
2022/09/27 00:52:59;;;;;;;7.18;5.35;;;;;;;15.42;75.21;94535.34;4977120;28;20079;-91
2022/09/27 00:55:28;;;;;;;7.63;4.97;;;;;;;15.47;74.70;94525.69;4992154;28;20494;-91
2022/09/27 00:57:53;;;;;;;7.95;5.03;;;;;;;15.51;73.81;94524.22;4991994;28;20026;-92
2022/09/27 01:00:19;;;;;;;6.75;5.18;;;;;;;15.39;74.38;94537.66;4959092;28;20421;-92
2022/09/27 01:02:48;;;;;;;6.90;5.13;;;;;;;15.35;75.24;94528.38;4981961;28;20042;-91
2022/09/27 01:05:14;;;;;;;7.55;5.05;;;;;;;15.35;74.77;94507.56;4992895;28;20034;-91
2022/09/27 01:07:39;;;;;;;9.90;6.05;;;;;;;15.31;75.78;94519.91;4986691;28;20049;-90
2022/09/27 01:10:05;;;;;;;7.35;5.03;;;;;;;15.19;75.75;94517.13;4998150;28;20034;-92
2022/09/27 01:12:49;;;;;;;7.32;5.13;;;;;;;15.19;75.84;94506.34;4975605;28;20030;-89
2022/09/27 01:15:20;;;;;;;8.38;5.45;;;;;;;15.13;75.99;94516.19;4993338;28;20493;-91
2022/09/27 01:17:49;;;;;;;7.15;5.28;;;;;;;15.18;76.13;94505.53;4992197;28;20026;-92
2022/09/27 01:20:15;;;;;;;8.07;5.30;;;;;;;15.17;76.18;94521.97;4992121;28;20027;-92
2022/09/27 01:22:51;;;;;;;8.55;5.55;;;;;;;15.15;76.52;94524.06;4991863;28;20048;-92
2022/09/27 01:25:48;;;;;;;8.00;5.40;;;;;;;15.19;76.74;94527.94;4990985;28;20034;-92
2022/09/27 01:28:28;;;;;;;6.18;4.88;;;;;;;15.19;77.11;94520.69;4991416;28;20509;-92
2022/09/27 01:31:03;;;;;;;7.50;6.00;;;;;;;15.25;77.33;94515.41;4992354;28;20528;-92
2022/09/27 01:33:43;;;;;;;7.40;6.00;;;;;;;15.39;76.93;94503.38;4992577;28;20069;-92
2022/09/27 01:36:12;;;;;;;9.85;6.05;;;;;;;15.40;76.92;94517.69;5007596;28;20034;-94
2022/09/27 01:38:55;;;;;;;7.85;5.35;;;;;;;15.49;76.56;94510.09;5006109;28;20472;-93
2022/09/27 01:41:28;;;;;;;9.82;5.38;;;;;;;15.53;76.72;94513.97;4991929;28;20033;-92
2022/09/27 01:44:08;;;;;;;8.43;5.80;;;;;;;15.48;77.08;94520.06;4990829;28;20064;-92
2022/09/27 01:46:37;;;;;;;10.35;6.18;;;;;;;15.25;78.16;94527.03;4990720;28;20065;-91
2022/09/27 01:49:05;;;;;;;8.05;5.35;;;;;;;15.36;78.04;94503.84;4959037;28;20551;-93
2022/09/27 01:51:37;;;;;;;7.20;6.00;;;;;;;15.33;77.74;94496.19;4958891;28;20092;-92
2022/09/27 01:54:03;;;;;;;12.30;7.45;;;;;;;14.94;79.53;94524.31;4975889;28;20494;-93
2022/09/27 01:56:42;;;;;;;8.15;6.22;;;;;;;15.03;79.93;94511.34;4989873;28;20117;-94
2022/09/27 01:59:27;;;;;;;10.05;6.55;;;;;;;15.13;79.87;94507.25;4990992;28;20029;-92
2022/09/27 02:01:52;;;;;;;7.10;5.55;;;;;;;15.27;79.62;94508.72;4977336;28;20161;-93
2022/09/27 02:04:23;;;;;;;7.65;6.38;;;;;;;15.26;79.54;94514.34;4975343;28;20030;-92
2022/09/27 02:06:52;;;;;;;7.05;5.88;;;;;;;15.40;79.13;94502.31;4979357;28;20037;-91
2022/09/27 02:09:37;;;;;;;8.18;5.85;;;;;;;15.43;78.84;94507.25;4976585;28;20040;-92
2022/09/27 02:12:04;;;;;;;6.95;5.55;;;;;;;15.57;78.11;94498.94;4961637;28;20056;-93
2022/09/27 02:14:33;;;;;;;7.28;6.00;;;;;;;15.59;78.19;94488.72;4974747;28;20417;-93
2022/09/27 02:17:29;;;;;;;7.30;5.75;;;;;;;15.60;78.10;94482.28;4974388;28;20044;-93
2022/09/27 02:20:13;;;;;;;8.27;6.07;;;;;;;15.60;77.98;94457.13;4990298;28;20113;-92
2022/09/27 02:22:54;;;;;;;9.75;7.13;;;;;;;15.40;78.67;94472.59;4989916;28;20034;-93
2022/09/27 02:25:27;;;;;;;10.40;7.10;;;;;;;15.42;79.30;94440.78;4991072;28;20034;-92
2022/09/27 02:28:05;;;;;;;12.35;7.70;;;;;;;15.27;79.39;94421.44;4991218;28;20077;-93
2022/09/27 02:30:30;;;;;;;12.43;7.60;;;;;;;15.19;79.76;94434.25;4990025;28;20046;-93
2022/09/27 02:32:56;;;;;;;9.15;6.75;;;;;;;15.14;80.17;94439.50;4974134;28;20038;-94
2022/09/27 02:35:26;;;;;;;11.40;7.10;;;;;;;15.16;80.04;94437.41;4990990;28;20037;-92
2022/09/27 02:37:52;;;;;;;9.13;7.15;;;;;;;15.17;79.83;94444.44;4958840;28;20061;-91
2022/09/27 02:40:18;;;;;;;9.48;6.57;;;;;;;15.15;79.98;94443.88;4991058;28;20037;-92
2022/09/27 02:42:44;;;;;;;8.73;6.78;;;;;;;15.12;79.71;94441.59;4975001;28;20026;-92
2022/09/27 02:45:10;;;;;;;9.90;6.93;;;;;;;15.09;80.14;94439.38;4974896;28;20513;-92
2022/09/27 02:47:56;;;;;;;9.23;6.43;;;;;;;15.04;80.94;94466.25;4975495;28;20022;-93
2022/09/27 02:50:28;;;;;;;7.72;6.13;;;;;;;15.11;80.72;94460.75;4993000;28;20058;-93
2022/09/27 02:52:56;;;;;;;10.80;6.93;;;;;;;15.15;80.51;94465.50;4992592;28;20022;-93
2022/09/27 02:55:43;;;;;;;8.82;6.95;;;;;;;15.22;80.39;94445.66;5011320;28;20084;-94
2022/09/27 02:58:27;;;;;;;8.20;6.53;;;;;;;15.37;79.50;94453.31;4979275;28;20034;-91
2022/09/27 03:01:10;;;;;;;9.25;6.57;;;;;;;15.32;80.02;94456.72;4995151;28;20023;-91
2022/09/27 03:03:37;;;;;;;10.10;6.95;;;;;;;15.26;80.21;94438.72;4975964;28;20109;-93
2022/09/27 03:06:05;;;;;;;11.30;6.63;;;;;;;15.30;79.86;94424.53;4975374;28;20034;-92
2022/09/27 03:08:31;;;;;;;9.82;7.18;;;;;;;15.28;79.92;94426.63;4987880;28;20030;-91
2022/09/27 03:10:56;;;;;;;8.15;6.57;;;;;;;15.19;79.95;94399.13;4958281;28;20114;-93
2022/09/27 03:13:22;;;;;;;8.23;6.50;;;;;;;15.08;80.61;94416.13;4974234;28;20026;-92
2022/09/27 03:15:47;;;;;;;8.60;6.80;;;;;;;15.06;80.97;94410.97;4990757;28;20026;-92
2022/09/27 03:18:13;;;;;;;10.60;6.45;;;;;;;15.13;81.08;94397.38;4980323;28;20560;-93
2022/09/27 03:20:38;;;;;;;9.60;6.50;;;;;;;15.22;81.08;94402.44;4991500;28;20038;-93
2022/09/27 03:23:04;;;;;;;11.00;7.00;;;;;;;15.33;79.85;94390.84;4989871;28;20073;-92
2022/09/27 03:25:29;;;;;;;11.82;7.35;;;;;;;15.33;80.21;94388.13;4974186;28;20084;-93
2022/09/27 03:27:54;;;;;;;9.48;6.72;;;;;;;15.35;80.10;94386.00;4989405;28;20069;-92
2022/09/27 03:30:20;;;;;;;10.45;7.00;;;;;;;15.41;79.91;94387.78;4989938;28;20030;-92
2022/09/27 03:32:45;;;;;;;9.55;6.60;;;;;;;15.52;79.43;94379.91;4988414;28;20038;-93
2022/09/27 03:35:11;;;;;;;8.18;6.28;;;;;;;15.53;78.87;94377.00;4973026;28;20113;-91
2022/09/27 03:37:37;;;;;;;9.80;6.55;;;;;;;15.59;78.08;94388.72;4973552;28;20029;-93
2022/09/27 03:40:03;;;;;;;8.60;6.38;;;;;;;15.60;77.93;94382.28;4956571;28;20030;-92
2022/09/27 03:42:29;;;;;;;8.40;6.28;;;;;;;15.66;78.08;94381.34;4972850;28;20121;-93
2022/09/27 03:44:54;;;;;;;10.95;6.40;;;;;;;15.71;77.88;94377.94;4988223;28;20038;-93
2022/09/27 03:47:21;;;;;;;9.65;6.60;;;;;;;15.71;77.99;94383.34;4973061;28;20041;-93
2022/09/27 03:49:47;;;;;;;10.05;7.13;;;;;;;15.76;78.07;94380.75;4973502;28;20037;-91
2022/09/27 03:52:13;;;;;;;8.23;7.15;;;;;;;15.79;77.91;94390.25;4990853;28;20022;-93
2022/09/27 03:54:38;;;;;;;10.18;7.13;;;;;;;15.78;77.49;94384.03;4972968;28;20072;-93
2022/09/27 03:57:04;;;;;;;12.23;7.47;;;;;;;15.81;77.58;94388.16;4989925;28;20041;-93
2022/09/27 03:59:29;;;;;;;8.75;6.95;;;;;;;15.75;78.15;94389.91;4988917;28;20093;-92
2022/09/27 04:01:55;;;;;;;8.68;7.10;;;;;;;15.78;78.22;94388.63;4976524;28;20022;-93
2022/09/27 04:04:20;;;;;;;9.27;7.28;;;;;;;15.80;78.23;94381.09;4992678;28;20031;-92
2022/09/27 04:06:46;;;;;;;8.40;7.45;;;;;;;15.89;77.92;94377.00;4990101;28;20022;-92
2022/09/27 04:09:11;;;;;;;12.10;6.53;;;;;;;15.88;76.99;94380.72;4991271;28;20473;-93
2022/09/27 04:11:37;;;;;;;9.27;7.10;;;;;;;15.64;78.47;94383.44;4990477;28;20031;-92
2022/09/27 04:14:04;;;;;;;10.32;8.57;;;;;;;15.59;78.72;94388.72;4999819;28;20041;-92
2022/09/27 04:16:31;;;;;;;11.07;7.32;;;;;;;15.67;78.38;94380.28;4974214;28;20037;-91
2022/09/27 04:18:56;;;;;;;10.30;7.20;;;;;;;15.67;78.47;94380.28;5009229;28;20035;-91
2022/09/27 04:21:22;;;;;;;10.07;7.95;;;;;;;15.73;78.20;94364.19;5008690;28;20497;-90
2022/09/27 04:23:47;;;;;;;8.77;6.55;;;;;;;15.72;77.97;94367.94;5008369;28;20042;-89
2022/09/27 04:26:13;;;;;;;10.23;6.80;;;;;;;15.74;77.66;94376.63;4995628;28;20037;-91
2022/09/27 04:28:38;;;;;;;11.90;7.70;;;;;;;15.79;77.46;94374.88;5008865;28;20077;-91
2022/09/27 04:31:04;;;;;;;10.77;7.07;;;;;;;15.80;77.91;94373.81;5008421;28;20031;-91
2022/09/27 04:33:30;;;;;;;9.77;7.55;;;;;;;15.77;77.83;94379.69;4991243;28;20031;-90
2022/09/27 04:38:39;;;;;;;11.07;7.47;;;;;;;15.93;77.00;94385.44;5006482;28;20523;-92
2022/09/27 04:41:06;;;;;;;13.60;7.40;;;;;;;15.89;77.19;94377.00;5002251;28;20051;-92
2022/09/27 04:43:31;;;;;;;11.77;7.25;;;;;;;15.93;76.88;94375.44;4983419;28;20092;-90
2022/09/27 04:45:56;;;;;;;12.82;7.97;;;;;;;15.98;76.63;94387.44;4983393;28;20030;-91
2022/09/27 04:48:22;;;;;;;11.65;7.80;;;;;;;16.02;76.34;94385.94;5003976;28;20037;-90
2022/09/27 04:50:55;;;;;;;11.13;7.18;;;;;;;16.02;76.57;94388.63;5003874;28;20369;-91
2022/09/27 04:53:21;;;;;;;13.43;7.43;;;;;;;16.02;76.84;94394.88;5004212;28;20394;-92
2022/09/27 04:55:47;;;;;;;10.73;7.13;;;;;;;16.07;76.87;94394.16;5004349;28;20029;-92
2022/09/27 04:58:13;;;;;;;9.65;6.55;;;;;;;16.12;75.93;94383.44;5004854;28;20039;-94
2022/09/27 05:00:39;;;;;;;9.18;6.88;;;;;;;15.93;76.35;94402.47;5003506;28;20066;-92
2022/09/27 05:03:04;;;;;;;13.25;6.68;;;;;;;15.93;76.79;94394.38;5005417;28;20069;-92
2022/09/27 05:05:30;;;;;;;14.68;7.15;;;;;;;15.94;76.79;94389.78;5003991;28;20034;-92
2022/09/27 05:07:55;;;;;;;9.90;7.30;;;;;;;15.99;77.11;94375.59;5007409;28;20023;-91
2022/09/27 05:10:20;;;;;;;15.38;7.18;;;;;;;16.06;76.69;94368.16;5004241;28;20042;-91
2022/09/27 05:12:46;;;;;;;11.80;7.13;;;;;;;16.02;76.73;94358.88;5006996;28;20037;-93
2022/09/27 05:15:11;;;;;;;8.15;6.78;;;;;;;15.91;76.51;94355.91;5008965;28;20023;-92
2022/09/27 05:17:37;;;;;;;11.30;6.53;;;;;;;15.83;76.62;94353.56;5006160;28;20026;-91
2022/09/27 05:20:03;;;;;;;20.77;6.93;;;;;;;15.69;77.92;94358.41;4989587;28;20014;-91
2022/09/27 05:22:28;;;;;;;14.85;7.53;;;;;;;15.59;78.86;94359.00;4989155;28;20019;-93
2022/09/27 05:24:54;;;;;;;16.00;7.70;;;;;;;15.61;79.31;94348.78;4991351;28;20050;-92
2022/09/27 05:27:19;;;;;;;14.98;7.78;;;;;;;15.63;79.58;94346.69;5005200;28;20069;-92
2022/09/27 05:29:49;;;;;;;24.60;7.97;;;;;;;15.72;78.67;94339.00;4967719;28;20023;-90
2022/09/27 05:32:15;;;;;;;24.13;7.50;;;;;;;15.70;78.02;94328.44;5010115;28;20057;-91
2022/09/27 05:34:40;;;;;;;18.60;7.38;;;;;;;15.68;78.51;94327.03;5009955;28;20030;-91
2022/09/27 05:37:06;;;;;;;12.70;6.50;;;;;;;15.71;78.40;94323.88;4992760;28;20057;-91
2022/09/27 05:39:31;;;;;;;11.52;7.00;;;;;;;15.69;78.54;94332.22;5008398;28;20026;-89
2022/09/27 05:41:57;;;;;;;11.80;6.47;;;;;;;15.69;78.99;94345.72;4992150;28;20034;-90
2022/09/27 05:44:22;;;;;;;10.43;6.93;;;;;;;15.64;79.71;94361.81;4991427;28;20029;-90
2022/09/27 05:46:48;;;;;;;15.15;7.70;;;;;;;15.68;79.85;94354.06;5004124;28;20053;-91
2022/09/27 05:49:13;;;;;;;9.18;7.70;;;;;;;15.80;79.45;94348.66;5006098;28;20026;-90
2022/09/27 05:51:38;;;;;;;10.55;7.63;;;;;;;15.89;78.27;94352.66;5007701;28;20027;-90
2022/09/27 05:54:04;;;;;;;11.25;8.52;;;;;;;15.84;78.15;94360.66;5007774;28;20081;-92
2022/09/27 05:56:29;;;;;;;13.60;8.40;;;;;;;15.74;78.70;94368.50;5001379;28;20034;-92
2022/09/27 05:58:55;;;;;;;11.85;8.50;;;;;;;15.72;79.16;94367.94;4990949;28;20030;-91
2022/09/27 06:01:20;;;;;;;12.70;7.88;;;;;;;15.61;79.00;94359.59;5010144;28;20041;-90
2022/09/27 06:03:46;;;;;;;16.83;7.25;;;;;;;15.56;79.01;94351.34;4991947;28;20034;-95
2022/09/27 06:06:14;;;;;;;9.43;7.68;;;;;;;15.52;79.17;94355.59;5011360;28;20026;-90
2022/09/27 06:08:39;;;;;;;10.00;7.38;;;;;;;15.46;79.31;94357.34;4997112;28;20050;-92
2022/09/27 06:11:07;;;;;;;9.05;7.68;;;;;;;15.30;79.99;94366.97;4998641;28;20029;-93
2022/09/27 06:13:32;;;;;;;14.27;7.70;;;;;;;15.26;80.58;94365.78;5013914;28;20035;-92
2022/09/27 06:15:58;;;;;;;9.07;7.20;;;;;;;15.29;80.69;94378.84;4997340;28;20031;-91
2022/09/27 06:18:23;;;;;;;11.63;8.35;;;;;;;15.33;81.25;94375.44;4997539;28;20076;-92
2022/09/27 06:20:49;;;;;;;12.20;8.55;;;;;;;15.36;81.06;94368.75;4981132;28;20110;-92
2022/09/27 06:23:17;;;;;;;10.63;8.15;;;;;;;15.38;80.94;94358.53;5013645;28;20026;-92
2022/09/27 06:25:43;;;;;;;10.77;8.70;;;;;;;15.38;80.66;94366.63;5012576;28;20045;-91
2022/09/27 06:28:09;;;;;;;11.63;8.38;;;;;;;15.29;80.81;94362.63;5013010;28;20061;-92
2022/09/27 06:30:38;;;;;;;11.00;8.35;;;;;;;15.22;80.75;94367.34;4996232;28;20047;-92
2022/09/27 06:33:04;;;;;;;12.38;9.32;;;;;;;15.18;81.32;94348.06;5012687;28;20026;-92
2022/09/27 06:35:29;;;;;;;11.05;8.85;;;;;;;15.14;81.52;94357.66;5013400;28;20036;-91
2022/09/27 06:37:55;;;;;;;11.27;9.25;;;;;;;15.12;81.53;94352.50;5003586;28;20038;-91
2022/09/27 06:40:21;;;;;;;10.95;8.98;;;;;;;15.10;81.64;94353.78;4978578;28;20105;-91
2022/09/27 06:42:47;;;;;;;13.68;8.73;;;;;;;15.08;81.62;94345.94;4981306;28;20022;-95
2022/09/27 06:45:13;;;;;;;11.80;9.60;;;;;;;15.20;81.78;94365.66;4980989;28;20509;-92
2022/09/27 06:47:38;;;;;;;11.07;9.07;;;;;;;15.12;82.39;94366.00;4995378;28;20033;-91
2022/09/27 06:50:04;;;;;;;10.98;8.82;;;;;;;15.19;82.14;94360.50;4997683;28;20026;-93
2022/09/27 06:52:34;;;;;;;12.10;9.70;;;;;;;15.33;81.54;94343.03;5011230;28;20049;-92
2022/09/27 06:55:03;;;;;;;14.27;10.07;;;;;;;15.39;81.15;94338.56;4980300;28;20611;-91
2022/09/27 07:00:22;;;;;;;20.08;10.27;;;;;;;15.27;82.08;94359.31;5011259;28;20057;-92
2022/09/27 07:02:49;;;;;;;14.45;9.82;;;;;;;15.31;82.29;94365.94;5015454;28;20033;-94
2022/09/27 07:05:17;;;;;;;15.88;9.80;;;;;;;15.37;82.30;94370.41;4996793;28;20173;-93
2022/09/27 07:07:43;;;;;;;18.23;9.80;;;;;;;15.50;81.96;94373.91;5015222;28;20089;-92
2022/09/27 07:10:09;;;;;;;14.48;9.85;;;;;;;15.62;81.44;94376.63;4995086;28;20022;-92
2022/09/27 07:12:35;;;;;;;11.88;10.00;;;;;;;15.61;81.22;94386.63;4980419;28;20022;-92
2022/09/27 07:15:01;;;;;;;12.52;9.75;;;;;;;15.56;81.14;94387.31;5013126;28;20038;-92
2022/09/27 07:17:26;;;;;;;13.00;10.23;;;;;;;15.64;81.11;94401.53;4996924;28;20098;-93
2022/09/27 07:19:53;;;;;;;13.15;9.55;;;;;;;15.50;82.20;94404.47;4996135;28;20038;-92
2022/09/27 07:22:19;;;;;;;18.65;11.13;;;;;;;15.57;81.41;94394.38;5012898;28;20126;-92
2022/09/27 07:24:44;;;;;;;19.30;9.98;;;;;;;15.61;81.53;94397.44;4997939;28;20352;-93
2022/09/27 07:27:10;;;;;;;18.08;9.38;;;;;;;15.74;81.75;94395.53;5010963;28;20026;-92
2022/09/27 07:29:36;;;;;;;14.02;9.98;;;;;;;15.86;81.37;94396.38;5014524;28;20026;-92
2022/09/27 07:32:01;;;;;;;17.35;9.48;;;;;;;15.86;80.74;94395.56;4991264;28;20058;-93
2022/09/27 07:34:27;;;;;;;16.38;9.35;;;;;;;15.91;80.51;94388.38;4994109;28;20026;-93
2022/09/27 07:36:53;;;;;;;15.32;10.18;;;;;;;15.97;80.55;94380.38;5009509;28;20026;-92
2022/09/27 07:39:20;;;;;;;13.38;9.10;;;;;;;16.06;80.40;94387.09;4995384;28;20034;-94
2022/09/27 07:41:46;;;;;;;14.55;9.30;;;;;;;16.27;79.78;94374.00;5013453;28;20034;-92
2022/09/27 07:44:14;;;;;;;13.75;9.30;;;;;;;16.24;79.04;94360.94;5013947;28;20057;-93
2022/09/27 07:46:40;;;;;;;12.52;9.50;;;;;;;16.10;79.52;94358.53;5013523;28;20030;-93
2022/09/27 07:49:05;;;;;;;11.80;9.82;;;;;;;16.09;80.29;94370.38;5012332;28;20031;-92
2022/09/27 07:51:31;;;;;;;12.18;9.65;;;;;;;16.04;80.90;94376.50;4995467;28;20018;-93
2022/09/27 07:53:56;;;;;;;12.45;10.00;;;;;;;16.09;81.00;94372.28;4991249;28;20030;-91
2022/09/27 07:56:22;;;;;;;11.73;9.57;;;;;;;16.03;81.73;94384.84;5009226;28;20026;-93
2022/09/27 07:58:47;;;;;;;11.60;9.38;;;;;;;16.05;81.00;94393.56;5011201;28;20038;-93
2022/09/27 08:01:13;;;;;;;12.23;9.68;;;;;;;16.11;80.64;94384.50;5011658;28;20030;-92
2022/09/27 08:03:39;;;;;;;11.25;9.07;;;;;;;16.12;80.85;94394.25;5013362;28;20026;-93
2022/09/27 08:06:04;;;;;;;11.82;9.82;;;;;;;16.09;80.65;94402.84;5012646;28;20026;-92
2022/09/27 08:08:30;;;;;;;11.07;8.88;;;;;;;16.11;80.24;94397.19;4995575;28;20037;-94
2022/09/27 08:10:55;;;;;;;11.23;9.43;;;;;;;16.11;80.72;94397.19;4994308;28;20018;-92
2022/09/27 08:13:21;;;;;;;13.48;9.20;;;;;;;16.22;79.63;94382.81;4996366;28;20041;-92
2022/09/27 08:15:47;;;;;;;14.50;8.75;;;;;;;16.17;80.17;94374.59;4994819;28;20041;-92
2022/09/27 08:18:13;;;;;;;10.93;8.27;;;;;;;16.08;80.18;94378.75;4979926;28;20030;-92
2022/09/27 08:20:39;;;;;;;12.63;9.80;;;;;;;16.06;80.81;94363.59;5011235;28;20030;-93
2022/09/27 08:23:04;;;;;;;12.95;9.52;;;;;;;16.02;81.42;94369.72;5011304;28;20022;-91
2022/09/27 08:25:30;;;;;;;16.80;11.27;;;;;;;16.08;81.67;94355.22;5010569;28;20034;-92
2022/09/27 08:27:56;;;;;;;21.40;15.18;;;;;;;15.93;82.13;94342.16;4995001;28;20062;-93
2022/09/27 08:30:22;;;;;;;19.00;15.50;;;;;;;16.01;82.28;94343.72;4996328;28;20489;-93
2022/09/27 08:32:47;;;;;;;13.82;11.52;;;;;;;16.00;81.74;94342.06;4995790;28;20073;-93
2022/09/27 08:35:14;;;;;;;14.20;9.88;;;;;;;15.92;81.89;94330.53;5013143;28;20062;-92
2022/09/27 08:37:40;;;;;;;10.07;8.55;;;;;;;15.92;82.88;94324.31;4995652;28;20030;-93
2022/09/27 08:40:06;;;;;;;19.00;10.45;;;;;;;15.99;83.09;94332.31;5011921;28;20053;-92
2022/09/27 08:42:41;;;;;;;13.57;8.73;;;;;;;16.00;82.88;94334.78;5007127;28;20035;-94
2022/09/27 08:45:22;;;;;;;11.10;8.85;;;;;;;16.13;82.52;94335.56;4989414;28;20030;-91
2022/09/27 08:47:59;;;;;;;12.25;8.80;;;;;;;16.18;82.14;94331.13;5005319;28;20022;-93
2022/09/27 08:50:37;;;;;;;11.50;8.40;;;;;;;16.27;82.01;94341.53;4982023;28;20105;-87
2022/09/27 08:53:22;;;;;;;12.45;8.98;;;;;;;16.32;82.09;94338.94;4988041;28;20034;-86
2022/09/27 08:55:52;;;;;;;11.77;9.38;;;;;;;16.33;82.63;94340.56;4988924;28;20481;-87
2022/09/27 08:58:35;;;;;;;12.02;9.57;;;;;;;16.38;82.90;94329.84;4975086;28;20483;-86
2022/09/27 09:01:07;;;;;;;11.10;8.77;;;;;;;16.39;82.38;94336.94;4981843;28;20023;-86
2022/09/27 09:03:38;;;;;;;11.05;7.97;;;;;;;16.46;82.06;94323.22;4985025;28;20026;-87
2022/09/27 09:06:07;;;;;;;13.20;8.00;;;;;;;16.57;81.19;94340.50;4984720;28;20484;-86
2022/09/27 09:08:47;;;;;;;12.07;8.63;;;;;;;16.50;80.78;94334.41;5010132;28;20022;-87
2022/09/27 09:14:47;;;;;;;10.75;8.25;;;;;;;16.51;82.08;94341.44;5006321;28;20547;-86
2022/09/27 09:17:23;;;;;;;10.07;7.85;;;;;;;16.64;81.15;94334.91;5004913;28;20030;-86
2022/09/27 09:20:08;;;;;;;9.93;7.93;;;;;;;16.59;81.39;94349.19;4989990;28;20031;-86
2022/09/27 09:22:55;;;;;;;11.80;8.27;;;;;;;16.71;81.44;94334.78;5005997;28;20022;-87
2022/09/27 09:25:21;;;;;;;10.63;8.55;;;;;;;16.77;82.19;94345.47;5005260;28;20552;-88
2022/09/27 09:28:19;;;;;;;12.05;8.40;;;;;;;16.88;80.18;94338.34;5002355;28;20062;-85
2022/09/27 09:31:12;;;;;;;10.57;8.95;;;;;;;16.97;79.94;94324.41;5007896;28;20038;-88
2022/09/27 09:34:00;;;;;;;31.15;9.40;;;;;;;16.68;81.19;94336.91;4994398;28;20026;-88
2022/09/27 09:36:31;;;;;;;12.23;9.13;;;;;;;16.96;80.63;94328.19;4977175;28;20390;-90
2022/09/27 09:39:14;;;;;;;9.98;8.27;;;;;;;16.88;79.63;94313.97;4978384;28;20061;-87
2022/09/27 09:41:42;;;;;;;14.40;8.40;;;;;;;16.91;79.40;94318.09;4963873;28;20027;-86
2022/09/27 09:44:25;;;;;;;12.27;8.50;;;;;;;16.85;79.63;94314.47;4978172;28;20552;-86
2022/09/27 09:46:54;;;;;;;11.52;7.63;;;;;;;16.95;79.33;94326.53;4978767;28;20060;-86
2022/09/27 09:49:24;;;;;;;13.38;8.82;;;;;;;17.01;79.92;94339.91;4995373;28;20049;-87
2022/09/27 09:51:55;;;;;;;10.38;8.65;;;;;;;17.12;80.13;94330.09;4980020;28;20045;-85
2022/09/27 09:54:34;;;;;;;15.02;8.60;;;;;;;17.10;80.46;94329.56;4982920;28;20036;-85
2022/09/27 09:57:22;;;;;;;13.48;8.32;;;;;;;17.02;79.99;94324.50;4980993;28;20026;-86
2022/09/27 10:00:12;;;;;;;16.40;8.25;;;;;;;17.21;79.46;94321.56;4983011;28;20022;-86
2022/09/27 10:02:38;;;;;;;14.32;9.18;;;;;;;17.32;78.54;94323.38;4991812;28;20029;-86
2022/09/27 10:05:04;;;;;;;19.42;9.48;;;;;;;17.34;78.40;94315.84;4973537;28;20027;-85
2022/09/27 10:07:30;;;;;;;19.92;8.13;;;;;;;17.33;78.08;94310.66;4980287;28;20046;-86
2022/09/27 10:09:58;;;;;;;21.40;8.88;;;;;;;17.25;79.56;94311.91;4977548;28;20082;-86
2022/09/27 10:12:23;;;;;;;12.25;7.82;;;;;;;17.38;78.77;94316.13;4977539;28;20057;-85
2022/09/27 10:14:49;;;;;;;16.15;8.57;;;;;;;17.37;78.50;94309.91;4993045;28;20058;-87
2022/09/27 10:17:17;;;;;;;11.52;7.60;;;;;;;17.41;78.65;94308.34;4975514;28;20098;-86
2022/09/27 10:19:42;;;;;;;19.52;8.68;;;;;;;17.45;78.79;94303.25;4976862;28;20030;-86
2022/09/27 10:22:28;;;;;;;19.25;7.88;;;;;;;17.48;79.02;94293.78;4975334;28;20026;-85
2022/09/27 10:24:58;;;;;;;16.40;7.82;;;;;;;17.72;79.88;94285.44;4993729;28;20148;-86
2022/09/27 10:27:24;;;;;;;10.88;7.32;;;;;;;17.83;79.74;94281.81;4977171;28;20576;-84
2022/09/27 10:29:58;;;;;;;8.27;7.43;;;;;;;17.96;79.44;94293.38;4976713;28;20508;-86
2022/09/27 10:32:29;;;;;;;9.23;6.68;;;;;;;18.04;77.45;94284.78;4961228;28;20027;-85
2022/09/27 10:34:55;;;;;;;7.93;6.43;;;;;;;18.00;76.76;94283.66;4992991;28;20053;-87
2022/09/27 10:37:21;;;;;;;10.27;6.43;;;;;;;18.06;76.46;94274.50;4992707;28;20481;-87
2022/09/27 10:39:47;;;;;;;9.50;6.40;;;;;;;17.97;76.44;94284.97;4976047;28;20038;-86
2022/09/27 10:42:32;;;;;;;8.35;6.68;;;;;;;18.03;78.54;94278.53;4976801;28;20026;-86
2022/09/27 10:45:18;;;;;;;9.18;6.40;;;;;;;18.10;77.57;94278.34;5003291;28;20102;-88
2022/09/27 10:47:43;;;;;;;23.95;7.93;;;;;;;18.16;75.56;94263.81;4987846;28;20111;-87
2022/09/27 10:50:14;;;;;;;21.67;7.95;;;;;;;18.22;75.93;94263.84;4967221;28;20035;-86
2022/09/27 10:52:41;;;;;;;17.35;7.05;;;;;;;18.18;75.48;94258.13;4963088;28;20046;-86
2022/09/27 10:55:21;;;;;;;12.77;6.65;;;;;;;18.37;74.51;94255.06;4992554;28;20042;-87
2022/09/27 10:57:51;;;;;;;12.10;6.60;;;;;;;18.31;75.94;94256.09;4972193;28;20042;-88
2022/09/27 11:00:33;;;;;;;15.75;7.72;;;;;;;18.26;76.12;94246.81;4970826;28;20425;-88
2022/09/27 11:03:01;;;;;;;17.25;8.00;;;;;;;18.60;75.85;94247.69;4974478;28;20026;-88
2022/09/27 11:05:32;;;;;;;11.80;7.15;;;;;;;18.84;77.03;94242.75;4971898;28;20030;-87
2022/09/27 11:08:01;;;;;;;11.52;6.82;;;;;;;18.87;75.55;94236.81;4972095;28;20117;-86
2022/09/27 11:10:34;;;;;;;9.07;6.47;;;;;;;19.14;73.72;94233.22;4971864;28;20068;-87
2022/09/27 11:13:13;;;;;;;9.05;6.70;;;;;;;19.09;73.91;94224.16;4971494;28;20061;-87
2022/09/27 11:16:17;;;;;;;7.22;6.53;;;;;;;19.48;75.25;94215.75;4988156;28;20141;-86
2022/09/27 11:18:49;;;;;;;11.90;7.32;;;;;;;19.64;73.40;94219.38;4994012;28;20061;-86
2022/09/27 11:21:26;;;;;;;8.27;6.57;;;;;;;19.85;74.26;94213.22;4989311;28;20030;-88
2022/09/27 11:24:06;;;;;;;11.25;6.55;;;;;;;19.86;69.56;94207.50;4987157;28;20117;-88
2022/09/27 11:27:04;;;;;;;7.57;5.80;;;;;;;19.94;70.97;94205.38;4986903;28;20037;-89
2022/09/27 11:29:39;;;;;;;7.57;4.50;;;;;;;20.11;66.12;94194.28;4989662;28;20030;-89
2022/09/27 11:32:14;;;;;;;9.35;4.50;;;;;;;20.31;64.46;94188.09;5004780;28;20026;-89
2022/09/27 11:35:03;;;;;;;8.75;4.63;;;;;;;20.35;64.46;94189.16;4982743;28;20029;-88
2022/09/27 11:37:47;;;;;;;8.82;4.47;;;;;;;20.72;63.79;94179.13;4990150;28;20043;-90
2022/09/27 11:40:35;;;;;;;7.80;4.32;;;;;;;20.92;63.14;94166.63;4971492;28;20117;-87
2022/09/27 11:43:25;;;;;;;6.13;4.50;;;;;;;21.06;63.59;94164.16;4989361;28;20030;-88
2022/09/27 11:46:05;;;;;;;7.30;4.10;;;;;;;21.35;63.56;94155.38;4992753;28;20066;-86
2022/09/27 11:48:45;;;;;;;7.07;4.13;;;;;;;21.57;61.72;94159.66;4986356;28;20064;-88
2022/09/27 11:51:33;;;;;;;7.70;3.90;;;;;;;21.84;62.28;94158.47;5003186;28;20042;-87